sensor_id;sensor_type;location;lat;lon;timestamp;P1;durP1;ratioP1;P2;durP2;ratioP2
4794;SDS011;2411;47.060;15.064;2023-05-23T00:00:11;10.07;;;7.63;;
4794;SDS011;2411;47.060;15.064;2023-05-23T00:02:39;10.33;;;7.23;;
4794;SDS011;2411;47.060;15.064;2023-05-23T00:05:08;7.27;;;6.60;;
4794;SDS011;2411;47.060;15.064;2023-05-23T00:07:36;7.63;;;7.00;;
4794;SDS011;2411;47.060;15.064;2023-05-23T00:10:03;8.50;;;7.00;;
4794;SDS011;2411;47.060;15.064;2023-05-23T00:12:31;8.67;;;7.77;;
4794;SDS011;2411;47.060;15.064;2023-05-23T00:14:59;8.07;;;7.27;;
4794;SDS011;2411;47.060;15.064;2023-05-23T00:17:27;8.53;;;7.10;;
4794;SDS011;2411;47.060;15.064;2023-05-23T00:19:54;8.20;;;6.40;;
4794;SDS011;2411;47.060;15.064;2023-05-23T00:22:21;14.07;;;6.43;;
4794;SDS011;2411;47.060;15.064;2023-05-23T00:24:49;12.53;;;7.60;;
4794;SDS011;2411;47.060;15.064;2023-05-23T00:27:16;7.50;;;6.70;;
4794;SDS011;2411;47.060;15.064;2023-05-23T00:29:43;10.87;;;6.33;;
4794;SDS011;2411;47.060;15.064;2023-05-23T00:32:11;8.13;;;7.20;;
4794;SDS011;2411;47.060;15.064;2023-05-23T00:34:38;8.10;;;7.40;;
4794;SDS011;2411;47.060;15.064;2023-05-23T00:37:05;10.10;;;7.70;;
4794;SDS011;2411;47.060;15.064;2023-05-23T00:39:33;11.20;;;7.57;;
4794;SDS011;2411;47.060;15.064;2023-05-23T00:42:02;8.07;;;7.27;;
4794;SDS011;2411;47.060;15.064;2023-05-23T00:44:31;9.67;;;7.27;;
4794;SDS011;2411;47.060;15.064;2023-05-23T00:46:58;9.63;;;6.70;;
4794;SDS011;2411;47.060;15.064;2023-05-23T00:49:26;7.87;;;6.93;;
4794;SDS011;2411;47.060;15.064;2023-05-23T00:51:54;15.20;;;7.00;;
4794;SDS011;2411;47.060;15.064;2023-05-23T00:54:23;8.37;;;7.53;;
4794;SDS011;2411;47.060;15.064;2023-05-23T00:56:53;10.77;;;7.30;;
4794;SDS011;2411;47.060;15.064;2023-05-23T00:59:21;7.27;;;6.57;;
4794;SDS011;2411;47.060;15.064;2023-05-23T01:01:50;8.60;;;7.17;;
4794;SDS011;2411;47.060;15.064;2023-05-23T01:04:20;7.70;;;6.73;;
4794;SDS011;2411;47.060;15.064;2023-05-23T01:06:53;8.50;;;7.23;;
4794;SDS011;2411;47.060;15.064;2023-05-23T01:09:22;8.00;;;6.53;;
4794;SDS011;2411;47.060;15.064;2023-05-23T01:14:23;8.77;;;6.60;;
4794;SDS011;2411;47.060;15.064;2023-05-23T01:17:06;6.97;;;6.27;;
4794;SDS011;2411;47.060;15.064;2023-05-23T01:19:51;7.50;;;6.80;;
4794;SDS011;2411;47.060;15.064;2023-05-23T01:28:16;7.30;;;6.60;;
4794;SDS011;2411;47.060;15.064;2023-05-23T01:30:46;7.83;;;6.10;;
4794;SDS011;2411;47.060;15.064;2023-05-23T01:33:16;7.60;;;6.80;;
4794;SDS011;2411;47.060;15.064;2023-05-23T01:35:46;13.53;;;7.40;;
4794;SDS011;2411;47.060;15.064;2023-05-23T01:38:14;8.30;;;6.87;;
4794;SDS011;2411;47.060;15.064;2023-05-23T01:40:41;9.13;;;7.17;;
4794;SDS011;2411;47.060;15.064;2023-05-23T01:43:08;7.97;;;7.07;;
4794;SDS011;2411;47.060;15.064;2023-05-23T01:45:36;7.30;;;6.60;;
4794;SDS011;2411;47.060;15.064;2023-05-23T01:48:04;8.57;;;6.30;;
4794;SDS011;2411;47.060;15.064;2023-05-23T01:50:32;7.80;;;7.00;;
4794;SDS011;2411;47.060;15.064;2023-05-23T01:53:00;9.50;;;7.30;;
4794;SDS011;2411;47.060;15.064;2023-05-23T01:55:31;7.40;;;6.80;;
4794;SDS011;2411;47.060;15.064;2023-05-23T01:57:58;7.53;;;6.83;;
4794;SDS011;2411;47.060;15.064;2023-05-23T02:00:27;8.53;;;7.70;;
4794;SDS011;2411;47.060;15.064;2023-05-23T02:02:54;8.03;;;7.23;;
4794;SDS011;2411;47.060;15.064;2023-05-23T02:05:22;7.57;;;6.80;;
4794;SDS011;2411;47.060;15.064;2023-05-23T02:07:49;8.37;;;7.57;;
4794;SDS011;2411;47.060;15.064;2023-05-23T02:10:16;7.40;;;6.80;;
4794;SDS011;2411;47.060;15.064;2023-05-23T02:12:44;7.77;;;7.10;;
4794;SDS011;2411;47.060;15.064;2023-05-23T02:15:12;8.10;;;7.40;;
4794;SDS011;2411;47.060;15.064;2023-05-23T02:17:39;7.87;;;7.07;;
4794;SDS011;2411;47.060;15.064;2023-05-23T02:20:07;9.40;;;7.20;;
4794;SDS011;2411;47.060;15.064;2023-05-23T02:22:37;7.30;;;6.70;;
4794;SDS011;2411;47.060;15.064;2023-05-23T02:25:04;7.87;;;6.97;;
4794;SDS011;2411;47.060;15.064;2023-05-23T02:27:32;12.63;;;6.70;;
4794;SDS011;2411;47.060;15.064;2023-05-23T02:30:00;8.07;;;7.17;;
4794;SDS011;2411;47.060;15.064;2023-05-23T02:32:27;7.30;;;6.70;;
4794;SDS011;2411;47.060;15.064;2023-05-23T02:34:55;6.50;;;5.90;;
4794;SDS011;2411;47.060;15.064;2023-05-23T02:37:23;7.60;;;6.90;;
4794;SDS011;2411;47.060;15.064;2023-05-23T02:39:51;7.03;;;6.40;;
4794;SDS011;2411;47.060;15.064;2023-05-23T02:42:18;7.30;;;6.60;;
4794;SDS011;2411;47.060;15.064;2023-05-23T02:44:45;7.70;;;6.97;;
4794;SDS011;2411;47.060;15.064;2023-05-23T02:47:13;7.63;;;7.03;;
4794;SDS011;2411;47.060;15.064;2023-05-23T02:49:40;7.37;;;6.67;;
4794;SDS011;2411;47.060;15.064;2023-05-23T02:52:07;8.03;;;7.23;;
4794;SDS011;2411;47.060;15.064;2023-05-23T02:54:34;13.10;;;7.33;;
4794;SDS011;2411;47.060;15.064;2023-05-23T02:57:02;9.97;;;8.20;;
4794;SDS011;2411;47.060;15.064;2023-05-23T02:59:29;7.70;;;7.00;;
4794;SDS011;2411;47.060;15.064;2023-05-23T03:01:57;9.87;;;7.27;;
4794;SDS011;2411;47.060;15.064;2023-05-23T03:04:24;8.30;;;7.40;;
4794;SDS011;2411;47.060;15.064;2023-05-23T03:06:53;21.10;;;8.40;;
4794;SDS011;2411;47.060;15.064;2023-05-23T03:09:20;11.60;;;6.67;;
4794;SDS011;2411;47.060;15.064;2023-05-23T03:11:48;14.00;;;7.97;;
4794;SDS011;2411;47.060;15.064;2023-05-23T03:14:15;7.53;;;6.30;;
4794;SDS011;2411;47.060;15.064;2023-05-23T03:16:42;8.97;;;7.50;;
4794;SDS011;2411;47.060;15.064;2023-05-23T03:19:11;7.03;;;6.43;;
4794;SDS011;2411;47.060;15.064;2023-05-23T03:21:38;7.70;;;7.00;;
4794;SDS011;2411;47.060;15.064;2023-05-23T03:24:05;8.23;;;7.40;;
4794;SDS011;2411;47.060;15.064;2023-05-23T03:26:33;7.70;;;6.90;;
4794;SDS011;2411;47.060;15.064;2023-05-23T03:29:00;7.43;;;6.73;;
4794;SDS011;2411;47.060;15.064;2023-05-23T03:31:27;8.43;;;6.83;;
4794;SDS011;2411;47.060;15.064;2023-05-23T03:33:55;7.10;;;6.40;;
4794;SDS011;2411;47.060;15.064;2023-05-23T03:36:22;7.47;;;6.63;;
4794;SDS011;2411;47.060;15.064;2023-05-23T03:38:51;10.03;;;6.67;;
4794;SDS011;2411;47.060;15.064;2023-05-23T03:41:19;9.80;;;6.30;;
4794;SDS011;2411;47.060;15.064;2023-05-23T03:43:47;6.00;;;5.50;;
4794;SDS011;2411;47.060;15.064;2023-05-23T03:46:14;7.93;;;6.50;;
4794;SDS011;2411;47.060;15.064;2023-05-23T03:48:42;7.00;;;6.30;;
4794;SDS011;2411;47.060;15.064;2023-05-23T03:51:09;8.80;;;6.70;;
4794;SDS011;2411;47.060;15.064;2023-05-23T03:53:38;7.60;;;6.80;;
4794;SDS011;2411;47.060;15.064;2023-05-23T03:56:06;14.63;;;6.90;;
4794;SDS011;2411;47.060;15.064;2023-05-23T03:58:33;7.33;;;6.70;;
4794;SDS011;2411;47.060;15.064;2023-05-23T04:01:01;7.17;;;5.90;;
4794;SDS011;2411;47.060;15.064;2023-05-23T04:03:28;6.90;;;6.30;;
4794;SDS011;2411;47.060;15.064;2023-05-23T04:05:58;8.20;;;7.40;;
4794;SDS011;2411;47.060;15.064;2023-05-23T04:08:26;7.27;;;6.57;;
4794;SDS011;2411;47.060;15.064;2023-05-23T04:10:56;9.43;;;6.73;;
4794;SDS011;2411;47.060;15.064;2023-05-23T04:13:23;7.43;;;6.40;;
4794;SDS011;2411;47.060;15.064;2023-05-23T04:15:52;7.20;;;5.90;;
4794;SDS011;2411;47.060;15.064;2023-05-23T04:18:21;9.10;;;6.80;;
4794;SDS011;2411;47.060;15.064;2023-05-23T04:20:49;8.57;;;5.80;;
4794;SDS011;2411;47.060;15.064;2023-05-23T04:23:16;5.97;;;4.77;;
4794;SDS011;2411;47.060;15.064;2023-05-23T04:25:44;9.60;;;6.30;;
4794;SDS011;2411;47.060;15.064;2023-05-23T04:28:11;6.70;;;5.90;;
4794;SDS011;2411;47.060;15.064;2023-05-23T04:30:39;7.50;;;5.87;;
4794;SDS011;2411;47.060;15.064;2023-05-23T04:33:08;5.83;;;5.33;;
4794;SDS011;2411;47.060;15.064;2023-05-23T04:35:36;5.67;;;5.20;;
4794;SDS011;2411;47.060;15.064;2023-05-23T04:38:06;7.37;;;5.20;;
4794;SDS011;2411;47.060;15.064;2023-05-23T04:40:34;6.40;;;5.83;;
4794;SDS011;2411;47.060;15.064;2023-05-23T04:43:01;6.10;;;5.00;;
4794;SDS011;2411;47.060;15.064;2023-05-23T04:45:29;5.77;;;5.30;;
4794;SDS011;2411;47.060;15.064;2023-05-23T04:47:57;5.80;;;5.30;;
4794;SDS011;2411;47.060;15.064;2023-05-23T04:50:24;5.53;;;4.73;;
4794;SDS011;2411;47.060;15.064;2023-05-23T04:52:54;8.50;;;5.70;;
4794;SDS011;2411;47.060;15.064;2023-05-23T04:55:22;7.00;;;5.80;;
4794;SDS011;2411;47.060;15.064;2023-05-23T04:57:49;5.20;;;4.80;;
4794;SDS011;2411;47.060;15.064;2023-05-23T05:00:17;5.27;;;4.80;;
4794;SDS011;2411;47.060;15.064;2023-05-23T05:02:46;11.60;;;5.40;;
4794;SDS011;2411;47.060;15.064;2023-05-23T05:05:13;6.03;;;5.43;;
4794;SDS011;2411;47.060;15.064;2023-05-23T05:07:40;6.73;;;4.67;;
4794;SDS011;2411;47.060;15.064;2023-05-23T05:10:08;5.30;;;4.60;;
4794;SDS011;2411;47.060;15.064;2023-05-23T05:12:46;7.37;;;4.97;;
4794;SDS011;2411;47.060;15.064;2023-05-23T05:15:15;7.80;;;5.63;;
4794;SDS011;2411;47.060;15.064;2023-05-23T05:17:44;6.67;;;5.27;;
4794;SDS011;2411;47.060;15.064;2023-05-23T05:20:15;5.60;;;4.83;;
4794;SDS011;2411;47.060;15.064;2023-05-23T05:22:43;4.97;;;4.47;;
4794;SDS011;2411;47.060;15.064;2023-05-23T05:25:10;6.80;;;4.87;;
4794;SDS011;2411;47.060;15.064;2023-05-23T05:27:37;10.03;;;5.50;;
4794;SDS011;2411;47.060;15.064;2023-05-23T05:30:06;23.53;;;4.43;;
4794;SDS011;2411;47.060;15.064;2023-05-23T05:32:34;5.13;;;4.70;;
4794;SDS011;2411;47.060;15.064;2023-05-23T05:35:02;5.67;;;5.00;;
4794;SDS011;2411;47.060;15.064;2023-05-23T05:37:29;6.07;;;4.80;;
4794;SDS011;2411;47.060;15.064;2023-05-23T05:39:56;4.67;;;4.27;;
4794;SDS011;2411;47.060;15.064;2023-05-23T05:42:24;5.60;;;4.83;;
4794;SDS011;2411;47.060;15.064;2023-05-23T05:44:51;5.10;;;4.60;;
4794;SDS011;2411;47.060;15.064;2023-05-23T05:47:19;13.80;;;4.30;;
4794;SDS011;2411;47.060;15.064;2023-05-23T05:49:46;5.67;;;4.50;;
4794;SDS011;2411;47.060;15.064;2023-05-23T05:52:14;9.30;;;4.23;;
4794;SDS011;2411;47.060;15.064;2023-05-23T05:54:41;7.40;;;4.90;;
4794;SDS011;2411;47.060;15.064;2023-05-23T05:57:08;8.70;;;4.80;;
4794;SDS011;2411;47.060;15.064;2023-05-23T05:59:36;5.80;;;5.03;;
4794;SDS011;2411;47.060;15.064;2023-05-23T06:02:03;7.20;;;4.43;;
4794;SDS011;2411;47.060;15.064;2023-05-23T06:04:30;5.87;;;4.80;;
4794;SDS011;2411;47.060;15.064;2023-05-23T06:06:58;5.80;;;5.10;;
4794;SDS011;2411;47.060;15.064;2023-05-23T06:09:25;6.90;;;5.00;;
4794;SDS011;2411;47.060;15.064;2023-05-23T06:11:52;11.43;;;5.30;;
4794;SDS011;2411;47.060;15.064;2023-05-23T06:14:20;8.07;;;5.20;;
4794;SDS011;2411;47.060;15.064;2023-05-23T06:16:47;8.30;;;4.87;;
4794;SDS011;2411;47.060;15.064;2023-05-23T06:19:15;4.40;;;4.00;;
4794;SDS011;2411;47.060;15.064;2023-05-23T06:21:42;5.70;;;4.30;;
4794;SDS011;2411;47.060;15.064;2023-05-23T06:24:09;7.40;;;4.57;;
4794;SDS011;2411;47.060;15.064;2023-05-23T06:26:37;6.20;;;4.43;;
4794;SDS011;2411;47.060;15.064;2023-05-23T06:29:04;5.13;;;4.67;;
4794;SDS011;2411;47.060;15.064;2023-05-23T06:31:31;5.40;;;4.80;;
4794;SDS011;2411;47.060;15.064;2023-05-23T06:33:59;4.87;;;4.57;;
4794;SDS011;2411;47.060;15.064;2023-05-23T06:36:27;5.93;;;4.33;;
4794;SDS011;2411;47.060;15.064;2023-05-23T06:38:54;4.33;;;3.70;;
4794;SDS011;2411;47.060;15.064;2023-05-23T06:41:21;10.40;;;4.40;;
4794;SDS011;2411;47.060;15.064;2023-05-23T06:43:49;5.87;;;4.07;;
4794;SDS011;2411;47.060;15.064;2023-05-23T06:46:16;13.87;;;5.33;;
4794;SDS011;2411;47.060;15.064;2023-05-23T06:48:44;18.83;;;5.30;;
4794;SDS011;2411;47.060;15.064;2023-05-23T06:51:11;7.73;;;5.07;;
4794;SDS011;2411;47.060;15.064;2023-05-23T06:53:39;6.47;;;4.53;;
4794;SDS011;2411;47.060;15.064;2023-05-23T06:56:06;9.93;;;5.43;;
4794;SDS011;2411;47.060;15.064;2023-05-23T06:58:33;6.27;;;4.97;;
4794;SDS011;2411;47.060;15.064;2023-05-23T07:01:01;6.70;;;4.50;;
4794;SDS011;2411;47.060;15.064;2023-05-23T07:03:28;8.17;;;5.60;;
4794;SDS011;2411;47.060;15.064;2023-05-23T07:05:55;11.53;;;5.57;;
4794;SDS011;2411;47.060;15.064;2023-05-23T07:08:23;9.30;;;4.90;;
4794;SDS011;2411;47.060;15.064;2023-05-23T07:10:50;6.07;;;5.00;;
4794;SDS011;2411;47.060;15.064;2023-05-23T07:13:17;6.60;;;5.23;;
4794;SDS011;2411;47.060;15.064;2023-05-23T07:15:45;7.67;;;4.73;;
4794;SDS011;2411;47.060;15.064;2023-05-23T07:18:12;11.67;;;5.70;;
4794;SDS011;2411;47.060;15.064;2023-05-23T07:20:40;8.80;;;4.97;;
4794;SDS011;2411;47.060;15.064;2023-05-23T07:23:08;7.30;;;4.80;;
4794;SDS011;2411;47.060;15.064;2023-05-23T07:25:35;6.37;;;4.50;;
4794;SDS011;2411;47.060;15.064;2023-05-23T07:28:05;7.40;;;4.67;;
4794;SDS011;2411;47.060;15.064;2023-05-23T07:30:36;5.30;;;4.80;;
4794;SDS011;2411;47.060;15.064;2023-05-23T07:33:04;6.53;;;5.00;;
4794;SDS011;2411;47.060;15.064;2023-05-23T07:35:32;6.90;;;5.37;;
4794;SDS011;2411;47.060;15.064;2023-05-23T07:37:59;8.93;;;5.00;;
4794;SDS011;2411;47.060;15.064;2023-05-23T07:40:29;10.50;;;5.77;;
4794;SDS011;2411;47.060;15.064;2023-05-23T07:42:56;5.57;;;5.07;;
4794;SDS011;2411;47.060;15.064;2023-05-23T07:45:25;5.40;;;4.90;;
4794;SDS011;2411;47.060;15.064;2023-05-23T07:47:53;8.73;;;4.80;;
4794;SDS011;2411;47.060;15.064;2023-05-23T07:50:20;10.23;;;5.07;;
4794;SDS011;2411;47.060;15.064;2023-05-23T07:52:47;8.70;;;5.17;;
4794;SDS011;2411;47.060;15.064;2023-05-23T07:55:16;8.40;;;4.83;;
4794;SDS011;2411;47.060;15.064;2023-05-23T07:57:44;7.60;;;5.00;;
4794;SDS011;2411;47.060;15.064;2023-05-23T08:00:11;6.93;;;4.73;;
4794;SDS011;2411;47.060;15.064;2023-05-23T08:02:40;7.40;;;5.23;;
4794;SDS011;2411;47.060;15.064;2023-05-23T08:05:08;8.60;;;5.30;;
4794;SDS011;2411;47.060;15.064;2023-05-23T08:07:36;5.70;;;4.60;;
4794;SDS011;2411;47.060;15.064;2023-05-23T08:10:03;11.80;;;5.03;;
4794;SDS011;2411;47.060;15.064;2023-05-23T08:12:31;17.60;;;6.50;;
4794;SDS011;2411;47.060;15.064;2023-05-23T08:14:59;8.23;;;4.87;;
4794;SDS011;2411;47.060;15.064;2023-05-23T08:17:26;6.70;;;4.47;;
4794;SDS011;2411;47.060;15.064;2023-05-23T08:19:54;10.17;;;4.93;;
4794;SDS011;2411;47.060;15.064;2023-05-23T08:22:21;6.20;;;5.57;;
4794;SDS011;2411;47.060;15.064;2023-05-23T08:24:48;6.53;;;5.10;;
4794;SDS011;2411;47.060;15.064;2023-05-23T08:27:16;9.57;;;5.47;;
4794;SDS011;2411;47.060;15.064;2023-05-23T08:29:43;4.87;;;4.07;;
4794;SDS011;2411;47.060;15.064;2023-05-23T08:32:12;6.50;;;5.33;;
4794;SDS011;2411;47.060;15.064;2023-05-23T08:34:39;6.63;;;5.10;;
4794;SDS011;2411;47.060;15.064;2023-05-23T08:37:07;14.83;;;5.93;;
4794;SDS011;2411;47.060;15.064;2023-05-23T08:39:34;14.33;;;6.13;;
4794;SDS011;2411;47.060;15.064;2023-05-23T08:42:02;6.90;;;4.50;;
4794;SDS011;2411;47.060;15.064;2023-05-23T08:44:29;5.73;;;5.10;;
4794;SDS011;2411;47.060;15.064;2023-05-23T08:46:57;32.10;;;10.67;;
4794;SDS011;2411;47.060;15.064;2023-05-23T08:49:31;90.60;;;23.93;;
4794;SDS011;2411;47.060;15.064;2023-05-23T08:52:00;130.07;;;31.77;;
4794;SDS011;2411;47.060;15.064;2023-05-23T08:54:31;79.57;;;21.60;;
4794;SDS011;2411;47.060;15.064;2023-05-23T08:57:00;17.07;;;6.73;;
4794;SDS011;2411;47.060;15.064;2023-05-23T08:59:27;20.53;;;7.70;;
4794;SDS011;2411;47.060;15.064;2023-05-23T09:01:55;6.00;;;5.20;;
4794;SDS011;2411;47.060;15.064;2023-05-23T09:04:23;5.20;;;4.80;;
4794;SDS011;2411;47.060;15.064;2023-05-23T09:06:51;8.30;;;4.90;;
4794;SDS011;2411;47.060;15.064;2023-05-23T09:09:22;7.20;;;4.97;;
4794;SDS011;2411;47.060;15.064;2023-05-23T09:11:50;6.70;;;5.03;;
4794;SDS011;2411;47.060;15.064;2023-05-23T09:14:17;6.97;;;4.37;;
4794;SDS011;2411;47.060;15.064;2023-05-23T09:16:45;5.23;;;4.57;;
4794;SDS011;2411;47.060;15.064;2023-05-23T09:19:16;6.27;;;4.30;;
4794;SDS011;2411;47.060;15.064;2023-05-23T09:21:44;6.50;;;4.20;;
4794;SDS011;2411;47.060;15.064;2023-05-23T09:24:12;4.90;;;4.43;;
4794;SDS011;2411;47.060;15.064;2023-05-23T09:26:39;5.17;;;4.77;;
4794;SDS011;2411;47.060;15.064;2023-05-23T09:29:06;6.80;;;4.87;;
4794;SDS011;2411;47.060;15.064;2023-05-23T09:31:33;10.00;;;4.70;;
4794;SDS011;2411;47.060;15.064;2023-05-23T09:34:01;4.93;;;4.40;;
4794;SDS011;2411;47.060;15.064;2023-05-23T09:36:29;4.90;;;4.50;;
4794;SDS011;2411;47.060;15.064;2023-05-23T09:39:01;5.07;;;4.57;;
4794;SDS011;2411;47.060;15.064;2023-05-23T09:41:33;5.37;;;4.70;;
4794;SDS011;2411;47.060;15.064;2023-05-23T09:44:07;4.93;;;4.07;;
4794;SDS011;2411;47.060;15.064;2023-05-23T09:46:35;4.50;;;4.20;;
4794;SDS011;2411;47.060;15.064;2023-05-23T09:49:15;4.43;;;3.80;;
4794;SDS011;2411;47.060;15.064;2023-05-23T09:51:57;5.33;;;4.07;;
4794;SDS011;2411;47.060;15.064;2023-05-23T09:54:25;5.20;;;4.70;;
4794;SDS011;2411;47.060;15.064;2023-05-23T09:56:53;14.77;;;5.27;;
4794;SDS011;2411;47.060;15.064;2023-05-23T09:59:23;4.50;;;4.03;;
4794;SDS011;2411;47.060;15.064;2023-05-23T10:01:55;6.50;;;4.60;;
4794;SDS011;2411;47.060;15.064;2023-05-23T10:04:23;4.93;;;4.40;;
4794;SDS011;2411;47.060;15.064;2023-05-23T10:06:55;8.67;;;4.53;;
4794;SDS011;2411;47.060;15.064;2023-05-23T10:09:27;5.40;;;4.90;;
4794;SDS011;2411;47.060;15.064;2023-05-23T10:14:42;6.20;;;4.93;;
4794;SDS011;2411;47.060;15.064;2023-05-23T10:17:16;8.40;;;4.57;;
4794;SDS011;2411;47.060;15.064;2023-05-23T10:22:29;8.50;;;4.20;;
4794;SDS011;2411;47.060;15.064;2023-05-23T10:24:58;4.70;;;4.30;;
4794;SDS011;2411;47.060;15.064;2023-05-23T10:27:26;4.80;;;3.90;;
4794;SDS011;2411;47.060;15.064;2023-05-23T10:29:53;7.63;;;4.20;;
4794;SDS011;2411;47.060;15.064;2023-05-23T10:32:21;5.27;;;4.83;;
4794;SDS011;2411;47.060;15.064;2023-05-23T10:38:01;4.73;;;4.33;;
4794;SDS011;2411;47.060;15.064;2023-05-23T10:40:49;7.67;;;4.00;;
4794;SDS011;2411;47.060;15.064;2023-05-23T10:43:39;8.17;;;5.00;;
4794;SDS011;2411;47.060;15.064;2023-05-23T10:46:09;6.80;;;4.50;;
4794;SDS011;2411;47.060;15.064;2023-05-23T10:48:42;5.50;;;4.57;;
4794;SDS011;2411;47.060;15.064;2023-05-23T10:51:11;7.70;;;4.97;;
4794;SDS011;2411;47.060;15.064;2023-05-23T10:53:41;7.23;;;5.00;;
4794;SDS011;2411;47.060;15.064;2023-05-23T10:56:13;4.73;;;4.33;;
4794;SDS011;2411;47.060;15.064;2023-05-23T10:58:51;5.50;;;4.20;;
4794;SDS011;2411;47.060;15.064;2023-05-23T11:01:24;4.50;;;4.13;;
4794;SDS011;2411;47.060;15.064;2023-05-23T11:03:53;4.73;;;4.23;;
4794;SDS011;2411;47.060;15.064;2023-05-23T11:06:40;4.63;;;4.20;;
4794;SDS011;2411;47.060;15.064;2023-05-23T11:09:12;5.80;;;4.73;;
4794;SDS011;2411;47.060;15.064;2023-05-23T11:11:54;4.90;;;4.40;;
4794;SDS011;2411;47.060;15.064;2023-05-23T11:17:16;4.23;;;3.80;;
4794;SDS011;2411;47.060;15.064;2023-05-23T11:20:04;6.40;;;4.80;;
4794;SDS011;2411;47.060;15.064;2023-05-23T11:22:33;7.73;;;5.50;;
4794;SDS011;2411;47.060;15.064;2023-05-23T11:25:08;5.17;;;4.67;;
4794;SDS011;2411;47.060;15.064;2023-05-23T11:27:37;5.73;;;5.23;;
4794;SDS011;2411;47.060;15.064;2023-05-23T11:30:10;5.13;;;4.73;;
4794;SDS011;2411;47.060;15.064;2023-05-23T11:32:41;11.33;;;5.13;;
4794;SDS011;2411;47.060;15.064;2023-05-23T11:35:15;6.60;;;5.87;;
4794;SDS011;2411;47.060;15.064;2023-05-23T11:37:43;13.40;;;5.70;;
4794;SDS011;2411;47.060;15.064;2023-05-23T11:40:29;6.60;;;5.83;;
4794;SDS011;2411;47.060;15.064;2023-05-23T11:42:58;13.87;;;7.17;;
4794;SDS011;2411;47.060;15.064;2023-05-23T11:45:28;21.83;;;6.10;;
4794;SDS011;2411;47.060;15.064;2023-05-23T11:47:57;15.77;;;7.50;;
4794;SDS011;2411;47.060;15.064;2023-05-23T11:50:25;10.20;;;7.17;;
4794;SDS011;2411;47.060;15.064;2023-05-23T11:52:53;17.30;;;7.40;;
4794;SDS011;2411;47.060;15.064;2023-05-23T11:55:23;9.63;;;6.77;;
4794;SDS011;2411;47.060;15.064;2023-05-23T11:57:54;22.27;;;9.27;;
4794;SDS011;2411;47.060;15.064;2023-05-23T12:00:24;13.70;;;7.97;;
4794;SDS011;2411;47.060;15.064;2023-05-23T12:02:51;16.37;;;6.80;;
4794;SDS011;2411;47.060;15.064;2023-05-23T12:05:19;28.33;;;7.50;;
4794;SDS011;2411;47.060;15.064;2023-05-23T12:07:47;11.50;;;7.83;;
4794;SDS011;2411;47.060;15.064;2023-05-23T12:10:15;9.10;;;6.70;;
4794;SDS011;2411;47.060;15.064;2023-05-23T12:12:43;12.83;;;9.07;;
4794;SDS011;2411;47.060;15.064;2023-05-23T12:15:13;10.13;;;8.50;;
4794;SDS011;2411;47.060;15.064;2023-05-23T12:17:44;9.97;;;8.33;;
4794;SDS011;2411;47.060;15.064;2023-05-23T12:20:12;7.00;;;6.30;;
4794;SDS011;2411;47.060;15.064;2023-05-23T12:22:40;9.03;;;7.93;;
4794;SDS011;2411;47.060;15.064;2023-05-23T12:25:08;10.27;;;7.83;;
4794;SDS011;2411;47.060;15.064;2023-05-23T12:27:39;17.70;;;9.97;;
4794;SDS011;2411;47.060;15.064;2023-05-23T12:30:13;9.30;;;7.97;;
4794;SDS011;2411;47.060;15.064;2023-05-23T12:32:44;11.13;;;9.53;;
4794;SDS011;2411;47.060;15.064;2023-05-23T12:35:16;11.70;;;8.93;;
4794;SDS011;2411;47.060;15.064;2023-05-23T12:37:43;11.13;;;7.20;;
4794;SDS011;2411;47.060;15.064;2023-05-23T12:40:15;6.80;;;4.97;;
4794;SDS011;2411;47.060;15.064;2023-05-23T12:42:50;6.27;;;5.67;;
4794;SDS011;2411;47.060;15.064;2023-05-23T12:45:24;10.50;;;7.63;;
4794;SDS011;2411;47.060;15.064;2023-05-23T12:48:02;16.40;;;9.80;;
4794;SDS011;2411;47.060;15.064;2023-05-23T12:50:30;11.37;;;8.17;;
4794;SDS011;2411;47.060;15.064;2023-05-23T12:52:58;10.10;;;9.10;;
4794;SDS011;2411;47.060;15.064;2023-05-23T12:55:25;18.43;;;8.00;;
4794;SDS011;2411;47.060;15.064;2023-05-23T12:57:53;12.13;;;8.47;;
4794;SDS011;2411;47.060;15.064;2023-05-23T13:00:20;9.60;;;8.60;;
4794;SDS011;2411;47.060;15.064;2023-05-23T13:02:48;9.17;;;7.93;;
4794;SDS011;2411;47.060;15.064;2023-05-23T13:05:16;9.83;;;6.50;;
4794;SDS011;2411;47.060;15.064;2023-05-23T13:07:43;10.73;;;7.70;;
4794;SDS011;2411;47.060;15.064;2023-05-23T13:10:10;8.13;;;7.33;;
4794;SDS011;2411;47.060;15.064;2023-05-23T13:12:38;9.70;;;7.40;;
4794;SDS011;2411;47.060;15.064;2023-05-23T13:15:05;12.63;;;6.60;;
4794;SDS011;2411;47.060;15.064;2023-05-23T13:17:33;7.60;;;6.90;;
4794;SDS011;2411;47.060;15.064;2023-05-23T13:20:01;9.13;;;7.00;;
4794;SDS011;2411;47.060;15.064;2023-05-23T13:22:30;6.60;;;5.60;;
4794;SDS011;2411;47.060;15.064;2023-05-23T13:24:58;6.33;;;5.73;;
4794;SDS011;2411;47.060;15.064;2023-05-23T13:27:25;7.63;;;6.70;;
4794;SDS011;2411;47.060;15.064;2023-05-23T13:29:52;15.73;;;7.20;;
4794;SDS011;2411;47.060;15.064;2023-05-23T13:32:20;7.30;;;6.43;;
4794;SDS011;2411;47.060;15.064;2023-05-23T13:34:47;7.10;;;6.40;;
4794;SDS011;2411;47.060;15.064;2023-05-23T13:37:14;11.80;;;7.17;;
4794;SDS011;2411;47.060;15.064;2023-05-23T13:39:42;10.40;;;8.50;;
4794;SDS011;2411;47.060;15.064;2023-05-23T13:42:09;9.53;;;7.57;;
4794;SDS011;2411;47.060;15.064;2023-05-23T13:44:37;8.30;;;7.53;;
4794;SDS011;2411;47.060;15.064;2023-05-23T13:47:11;8.73;;;7.63;;
4794;SDS011;2411;47.060;15.064;2023-05-23T13:49:39;9.60;;;7.53;;
4794;SDS011;2411;47.060;15.064;2023-05-23T13:52:07;7.50;;;6.60;;
4794;SDS011;2411;47.060;15.064;2023-05-23T13:54:35;6.90;;;6.30;;
4794;SDS011;2411;47.060;15.064;2023-05-23T13:57:02;14.27;;;6.60;;
4794;SDS011;2411;47.060;15.064;2023-05-23T13:59:31;10.07;;;6.33;;
4794;SDS011;2411;47.060;15.064;2023-05-23T14:01:58;9.30;;;6.33;;
4794;SDS011;2411;47.060;15.064;2023-05-23T14:04:25;8.80;;;6.60;;
4794;SDS011;2411;47.060;15.064;2023-05-23T14:06:56;7.27;;;6.47;;
4794;SDS011;2411;47.060;15.064;2023-05-23T14:09:23;9.13;;;6.13;;
4794;SDS011;2411;47.060;15.064;2023-05-23T14:11:51;6.70;;;5.73;;
4794;SDS011;2411;47.060;15.064;2023-05-23T14:14:18;11.57;;;5.80;;
4794;SDS011;2411;47.060;15.064;2023-05-23T14:16:45;6.97;;;6.33;;
4794;SDS011;2411;47.060;15.064;2023-05-23T14:19:13;24.17;;;6.30;;
4794;SDS011;2411;47.060;15.064;2023-05-23T14:21:40;7.40;;;5.90;;
4794;SDS011;2411;47.060;15.064;2023-05-23T14:24:10;10.60;;;5.87;;
4794;SDS011;2411;47.060;15.064;2023-05-23T14:26:37;7.07;;;6.33;;
4794;SDS011;2411;47.060;15.064;2023-05-23T14:29:05;7.80;;;5.50;;
4794;SDS011;2411;47.060;15.064;2023-05-23T14:31:32;7.43;;;6.17;;
4794;SDS011;2411;47.060;15.064;2023-05-23T14:33:59;8.37;;;5.60;;
4794;SDS011;2411;47.060;15.064;2023-05-23T14:36:27;6.30;;;5.70;;
4794;SDS011;2411;47.060;15.064;2023-05-23T14:38:54;8.87;;;6.53;;
4794;SDS011;2411;47.060;15.064;2023-05-23T14:41:22;7.63;;;6.70;;
4794;SDS011;2411;47.060;15.064;2023-05-23T14:43:49;8.57;;;6.67;;
4794;SDS011;2411;47.060;15.064;2023-05-23T14:46:17;9.33;;;6.23;;
4794;SDS011;2411;47.060;15.064;2023-05-23T14:48:44;8.40;;;7.23;;
4794;SDS011;2411;47.060;15.064;2023-05-23T14:51:11;8.10;;;7.10;;
4794;SDS011;2411;47.060;15.064;2023-05-23T14:53:52;11.17;;;7.87;;
4794;SDS011;2411;47.060;15.064;2023-05-23T14:56:20;13.43;;;8.70;;
4794;SDS011;2411;47.060;15.064;2023-05-23T14:58:48;12.20;;;8.70;;
4794;SDS011;2411;47.060;15.064;2023-05-23T15:01:16;9.50;;;7.97;;
4794;SDS011;2411;47.060;15.064;2023-05-23T15:03:44;9.03;;;7.93;;
4794;SDS011;2411;47.060;15.064;2023-05-23T15:06:11;7.77;;;5.43;;
4794;SDS011;2411;47.060;15.064;2023-05-23T15:08:39;6.43;;;5.83;;
4794;SDS011;2411;47.060;15.064;2023-05-23T15:11:06;6.30;;;5.33;;
4794;SDS011;2411;47.060;15.064;2023-05-23T15:13:35;5.93;;;5.37;;
4794;SDS011;2411;47.060;15.064;2023-05-23T15:16:02;7.40;;;6.70;;
4794;SDS011;2411;47.060;15.064;2023-05-23T15:18:30;6.13;;;5.63;;
4794;SDS011;2411;47.060;15.064;2023-05-23T15:21:06;10.13;;;6.50;;
4794;SDS011;2411;47.060;15.064;2023-05-23T15:23:34;7.00;;;5.47;;
4794;SDS011;2411;47.060;15.064;2023-05-23T15:26:01;6.93;;;5.93;;